createdAt,value
2022-11-05T00:00:50.818Z,991.24
2022-11-05T00:01:50.841Z,991.25
2022-11-05T00:02:50.797Z,991.22
2022-11-05T00:03:50.872Z,991.26
2022-11-05T00:04:50.783Z,991.26
2022-11-05T00:05:50.779Z,991.24
2022-11-05T00:06:50.777Z,991.24
2022-11-05T00:07:50.759Z,991.28
2022-11-05T00:08:50.762Z,991.28
2022-11-05T00:09:50.754Z,991.36
2022-11-05T00:10:51.017Z,991.28
2022-11-05T00:11:50.734Z,991.31
2022-11-05T00:12:50.732Z,991.36
2022-11-05T00:13:50.744Z,991.36
2022-11-05T00:14:50.718Z,991.37
2022-11-05T00:15:50.703Z,991.32
2022-11-05T00:16:50.694Z,991.38
2022-11-05T00:17:50.689Z,991.40
2022-11-05T00:18:50.681Z,991.48
2022-11-05T00:19:51.060Z,991.47
2022-11-05T00:20:50.814Z,991.40
2022-11-05T00:21:50.922Z,991.50
2022-11-05T00:22:50.646Z,991.49
2022-11-05T00:23:50.645Z,991.52
2022-11-05T00:24:50.632Z,991.46
2022-11-05T00:25:50.631Z,991.49
2022-11-05T00:26:50.626Z,991.51
2022-11-05T00:27:51.734Z,991.51
2022-11-05T00:28:50.613Z,991.52
2022-11-05T00:29:50.644Z,991.61
2022-11-05T00:30:50.598Z,991.53
2022-11-05T00:31:50.588Z,991.54
2022-11-05T00:32:51.234Z,991.57
2022-11-05T00:33:50.790Z,991.56
2022-11-05T00:34:50.563Z,991.59
2022-11-05T00:35:50.577Z,991.60
2022-11-05T00:36:50.564Z,991.62
2022-11-05T00:37:50.859Z,991.58
2022-11-05T00:38:50.542Z,991.65
2022-11-05T00:39:50.531Z,991.70
2022-11-05T00:40:50.990Z,991.68
2022-11-05T00:41:50.524Z,991.71
2022-11-05T00:42:50.507Z,991.78
2022-11-05T00:43:50.525Z,991.73
2022-11-05T00:44:50.500Z,991.70
2022-11-05T00:45:50.523Z,991.72
2022-11-05T00:46:50.485Z,991.73
2022-11-05T00:47:50.499Z,991.66
2022-11-05T00:48:50.470Z,991.66
2022-11-05T00:49:50.475Z,991.62
2022-11-05T00:50:51.371Z,991.60
2022-11-05T00:51:50.462Z,991.64
2022-11-05T00:52:50.466Z,991.61
2022-11-05T00:53:50.438Z,991.65
2022-11-05T00:54:50.456Z,991.71
2022-11-05T00:55:50.427Z,991.73
2022-11-05T00:56:50.410Z,991.65
2022-11-05T00:57:50.404Z,991.75
2022-11-05T00:58:50.405Z,991.78
2022-11-05T00:59:50.402Z,991.76
2022-11-05T01:00:50.394Z,991.78
2022-11-05T01:01:50.649Z,991.77
2022-11-05T01:02:50.644Z,991.74
2022-11-05T01:03:51.912Z,991.76
2022-11-05T01:04:50.368Z,991.68
2022-11-05T01:05:50.380Z,991.80
2022-11-05T01:06:50.349Z,991.77
2022-11-05T01:07:50.346Z,991.76
2022-11-05T01:08:50.330Z,991.77
2022-11-05T01:09:50.328Z,991.84
2022-11-05T01:10:50.323Z,991.85
2022-11-05T01:11:50.329Z,991.83
2022-11-05T01:12:50.323Z,991.86
2022-11-05T01:13:50.300Z,991.94
2022-11-05T01:14:50.285Z,991.87
2022-11-05T01:15:50.281Z,991.90
2022-11-05T01:16:50.278Z,991.89
2022-11-05T01:17:50.303Z,991.88
2022-11-05T01:18:50.281Z,991.92
2022-11-05T01:19:51.617Z,991.94
2022-11-05T01:20:50.244Z,991.92
2022-11-05T01:21:50.242Z,991.93
2022-11-05T01:22:50.243Z,991.96
2022-11-05T01:23:50.225Z,991.97
2022-11-05T01:24:50.229Z,992.02
2022-11-05T01:25:50.221Z,992.04
2022-11-05T01:26:50.202Z,992.03
2022-11-05T01:27:50.217Z,992.08
2022-11-05T01:28:50.326Z,992.03
2022-11-05T01:29:50.205Z,992.08
2022-11-05T01:30:50.183Z,992.03
2022-11-05T01:31:50.171Z,992.08
2022-11-05T01:32:50.167Z,992.04
2022-11-05T01:33:50.288Z,992.04
2022-11-05T01:34:50.149Z,992.10
2022-11-05T01:35:50.154Z,992.04
2022-11-05T01:36:50.135Z,992.00
2022-11-05T01:37:50.129Z,992.07
2022-11-05T01:38:50.127Z,992.05
2022-11-05T01:39:50.128Z,992.03
2022-11-05T01:40:50.112Z,992.06
2022-11-05T01:41:50.121Z,992.05
2022-11-05T01:42:50.106Z,992.01
2022-11-05T01:43:50.091Z,992.04
2022-11-05T01:44:50.613Z,992.08
2022-11-05T01:45:50.074Z,992.05
2022-11-05T01:46:50.084Z,992.08
2022-11-05T01:47:50.066Z,992.11
2022-11-05T01:48:50.052Z,992.10
2022-11-05T01:49:50.138Z,992.11
2022-11-05T01:50:50.055Z,992.17
2022-11-05T01:51:50.812Z,992.07
2022-11-05T01:52:50.043Z,992.14
2022-11-05T01:53:50.033Z,992.12
2022-11-05T01:54:50.005Z,992.12
2022-11-05T01:55:50.005Z,992.16
2022-11-05T01:56:50.021Z,992.12
2022-11-05T01:57:49.985Z,992.13
2022-11-05T01:58:50.008Z,992.14
2022-11-05T01:59:49.972Z,992.16
2022-11-05T02:00:49.969Z,992.18
2022-11-05T02:01:50.775Z,992.17
2022-11-05T02:02:50.238Z,992.16
2022-11-05T02:03:49.989Z,992.16
2022-11-05T02:04:49.947Z,992.22
2022-11-05T02:05:49.963Z,992.24
2022-11-05T02:06:49.935Z,992.19
2022-11-05T02:07:49.922Z,992.25
2022-11-05T02:08:50.612Z,992.21
2022-11-05T02:09:49.903Z,992.28
2022-11-05T02:10:49.936Z,992.26
2022-11-05T02:11:49.885Z,992.31
2022-11-05T02:12:49.900Z,992.35
2022-11-05T02:13:49.881Z,992.34
2022-11-05T02:14:49.868Z,992.32
2022-11-05T02:15:49.864Z,992.40
2022-11-05T02:16:49.855Z,992.34
2022-11-05T02:17:49.848Z,992.36
2022-11-05T02:18:49.845Z,992.37
2022-11-05T02:19:49.856Z,992.37
2022-11-05T02:20:52.336Z,992.40
2022-11-05T02:21:50.236Z,992.41
2022-11-05T02:22:49.813Z,992.39
2022-11-05T02:23:49.808Z,992.36
2022-11-05T02:24:49.803Z,992.41
2022-11-05T02:25:49.797Z,992.41
2022-11-05T02:26:49.779Z,992.36
2022-11-05T02:27:49.798Z,992.38
2022-11-05T02:28:49.781Z,992.46
2022-11-05T02:29:49.760Z,992.46
2022-11-05T02:30:49.760Z,992.47
2022-11-05T02:31:49.749Z,992.47
2022-11-05T02:32:49.740Z,992.46
2022-11-05T02:33:49.750Z,992.46
2022-11-05T02:34:49.727Z,992.50
2022-11-05T02:35:50.300Z,992.51
2022-11-05T02:36:49.722Z,992.51
2022-11-05T02:37:49.730Z,992.46
2022-11-05T02:38:49.694Z,992.53
2022-11-05T02:39:49.695Z,992.53
2022-11-05T02:40:49.686Z,992.49
2022-11-05T02:41:49.676Z,992.54
2022-11-05T02:42:49.673Z,992.58
2022-11-05T02:43:49.670Z,992.51
2022-11-05T02:44:49.669Z,992.56
2022-11-05T02:45:49.649Z,992.64
2022-11-05T02:46:49.651Z,992.58
2022-11-05T02:47:50.178Z,992.54
2022-11-05T02:48:49.626Z,992.58
2022-11-05T02:49:50.293Z,992.64
2022-11-05T02:50:49.644Z,992.59
2022-11-05T02:51:49.619Z,992.57
2022-11-05T02:52:49.611Z,992.61
2022-11-05T02:53:49.616Z,992.62
2022-11-05T02:54:49.594Z,992.59
2022-11-05T02:55:49.614Z,992.61
2022-11-05T02:56:49.596Z,992.61
2022-11-05T02:57:49.565Z,992.65
2022-11-05T02:58:49.551Z,992.61
2022-11-05T02:59:50.828Z,992.60
2022-11-05T03:00:49.538Z,992.57
2022-11-05T03:01:49.694Z,992.58
2022-11-05T03:02:49.730Z,992.58
2022-11-05T03:03:49.521Z,992.56
2022-11-05T03:04:49.517Z,992.59
2022-11-05T03:05:49.508Z,992.63
2022-11-05T03:06:49.556Z,992.59
2022-11-05T03:07:49.490Z,992.59
2022-11-05T03:08:49.488Z,992.59
2022-11-05T03:09:49.745Z,992.58
2022-11-05T03:10:50.649Z,992.54
2022-11-05T03:11:49.464Z,992.56
2022-11-05T03:12:49.455Z,992.53
2022-11-05T03:13:49.444Z,992.58
2022-11-05T03:14:50.106Z,992.60
2022-11-05T03:15:49.861Z,992.51
2022-11-05T03:16:49.434Z,992.57
2022-11-05T03:17:49.432Z,992.54
2022-11-05T03:18:49.416Z,992.55
2022-11-05T03:19:49.413Z,992.54
2022-11-05T03:20:49.853Z,992.53
2022-11-05T03:21:49.391Z,992.57
2022-11-05T03:22:49.398Z,992.55
2022-11-05T03:23:49.387Z,992.53
2022-11-05T03:24:49.374Z,992.63
2022-11-05T03:25:49.387Z,992.58
2022-11-05T03:26:49.373Z,992.55
2022-11-05T03:27:49.351Z,992.53
2022-11-05T03:28:49.353Z,992.64
2022-11-05T03:29:49.338Z,992.63
2022-11-05T03:30:49.331Z,992.63
2022-11-05T03:31:49.334Z,992.70
2022-11-05T03:32:49.322Z,992.67
2022-11-05T03:33:49.335Z,992.65
2022-11-05T03:34:49.302Z,992.74
2022-11-05T03:35:49.304Z,992.69
2022-11-05T03:36:49.292Z,992.72
2022-11-05T03:37:49.284Z,992.75
2022-11-05T03:38:49.780Z,992.82
2022-11-05T03:39:49.270Z,992.81
2022-11-05T03:40:49.260Z,992.84
2022-11-05T03:41:49.287Z,992.84
2022-11-05T03:42:49.248Z,992.85
2022-11-05T03:43:49.652Z,992.86
2022-11-05T03:44:49.237Z,992.86
2022-11-05T03:45:49.223Z,992.83
2022-11-05T03:46:49.233Z,992.77
2022-11-05T03:47:49.632Z,992.80
2022-11-05T03:48:49.289Z,992.82
2022-11-05T03:49:49.204Z,992.88
2022-11-05T03:50:49.184Z,992.87
2022-11-05T03:51:49.187Z,992.88
2022-11-05T03:52:49.179Z,992.87
2022-11-05T03:53:49.819Z,992.87
2022-11-05T03:54:49.158Z,992.90
2022-11-05T03:55:49.159Z,992.93
2022-11-05T03:56:49.159Z,992.91
2022-11-05T03:57:49.161Z,992.92
2022-11-05T03:58:50.032Z,992.95
2022-11-05T03:59:49.141Z,992.93
2022-11-05T04:00:49.112Z,992.90
2022-11-05T04:01:49.293Z,992.96
2022-11-05T04:02:49.272Z,992.94
2022-11-05T04:03:49.101Z,992.99
2022-11-05T04:04:49.096Z,992.96
2022-11-05T04:05:49.080Z,993.05
2022-11-05T04:06:49.629Z,993.09
2022-11-05T04:07:49.064Z,993.09
2022-11-05T04:08:49.059Z,993.08
2022-11-05T04:09:49.064Z,993.09
2022-11-05T04:10:49.085Z,993.10
2022-11-05T04:11:49.687Z,993.08
2022-11-05T04:12:49.032Z,993.11
2022-11-05T04:13:49.053Z,993.14
2022-11-05T04:14:49.014Z,993.15
2022-11-05T04:15:49.032Z,993.13
2022-11-05T04:16:49.003Z,993.15
2022-11-05T04:17:48.993Z,993.17
2022-11-05T04:18:48.991Z,993.13
2022-11-05T04:19:48.988Z,993.20
2022-11-05T04:20:48.969Z,993.21
2022-11-05T04:21:48.982Z,993.23
2022-11-05T04:22:48.960Z,993.22
2022-11-05T04:23:48.955Z,993.23
2022-11-05T04:24:48.949Z,993.17
2022-11-05T04:25:48.987Z,993.25
2022-11-05T04:26:48.943Z,993.27
2022-11-05T04:27:48.924Z,993.26
2022-11-05T04:28:48.922Z,993.28
2022-11-05T04:29:49.107Z,993.31
2022-11-05T04:30:48.910Z,993.31
2022-11-05T04:31:48.921Z,993.33
2022-11-05T04:32:48.888Z,993.33
2022-11-05T04:33:48.888Z,993.37
2022-11-05T04:34:48.871Z,993.40
2022-11-05T04:35:48.873Z,993.36
2022-11-05T04:36:48.866Z,993.37
2022-11-05T04:37:48.855Z,993.34
2022-11-05T04:38:48.857Z,993.33
2022-11-05T04:39:48.835Z,993.36
2022-11-05T04:40:48.829Z,993.42
2022-11-05T04:41:48.965Z,993.35
2022-11-05T04:42:48.830Z,993.38
2022-11-05T04:43:48.815Z,993.36
2022-11-05T04:44:48.808Z,993.32
2022-11-05T04:45:48.825Z,993.41
2022-11-05T04:46:48.792Z,993.38
2022-11-05T04:47:49.201Z,993.44
2022-11-05T04:48:48.778Z,993.41
2022-11-05T04:49:48.777Z,993.40
2022-11-05T04:50:48.761Z,993.42
2022-11-05T04:51:48.762Z,993.42
2022-11-05T04:52:48.749Z,993.47
2022-11-05T04:53:48.743Z,993.44
2022-11-05T04:54:48.737Z,993.46
2022-11-05T04:55:48.724Z,993.49
2022-11-05T04:56:48.715Z,993.41
2022-11-05T04:57:48.720Z,993.50
2022-11-05T04:58:48.724Z,993.41
2022-11-05T04:59:48.704Z,993.43
2022-11-05T05:00:48.893Z,993.49
2022-11-05T05:01:48.771Z,993.46
2022-11-05T05:02:48.679Z,993.51
2022-11-05T05:03:48.670Z,993.49
2022-11-05T05:04:48.673Z,993.50
2022-11-05T05:05:48.682Z,993.53
2022-11-05T05:06:49.644Z,993.52
2022-11-05T05:07:48.644Z,993.55
2022-11-05T05:08:48.632Z,993.56
2022-11-05T05:09:48.634Z,993.55
2022-11-05T05:10:48.619Z,993.55
2022-11-05T05:11:49.216Z,993.58
2022-11-05T05:12:48.614Z,993.58
2022-11-05T05:13:48.602Z,993.65
2022-11-05T05:14:48.609Z,993.66
2022-11-05T05:15:49.474Z,993.60
2022-11-05T05:16:48.586Z,993.64
2022-11-05T05:17:48.597Z,993.60
2022-11-05T05:18:48.575Z,993.63
2022-11-05T05:19:48.561Z,993.66
2022-11-05T05:20:48.561Z,993.65
2022-11-05T05:21:48.579Z,993.63
2022-11-05T05:22:48.540Z,993.60
2022-11-05T05:23:48.556Z,993.64
2022-11-05T05:24:52.584Z,993.68
2022-11-05T05:25:48.522Z,993.71
2022-11-05T05:26:48.542Z,993.70
2022-11-05T05:27:48.513Z,993.71
2022-11-05T05:28:49.229Z,993.65
2022-11-05T05:29:48.504Z,993.66
2022-11-05T05:30:48.494Z,993.67
2022-11-05T05:31:48.495Z,993.71
2022-11-05T05:32:48.473Z,993.73
2022-11-05T05:33:48.498Z,993.75
2022-11-05T05:34:48.465Z,993.75
2022-11-05T05:35:48.459Z,993.73
2022-11-05T05:36:48.450Z,993.74
2022-11-05T05:37:48.451Z,993.70
2022-11-05T05:38:48.455Z,993.67
2022-11-05T05:39:48.426Z,993.69
2022-11-05T05:40:48.424Z,993.73
2022-11-05T05:41:48.423Z,993.75
2022-11-05T05:42:49.150Z,993.70
2022-11-05T05:43:48.410Z,993.74
2022-11-05T05:44:48.433Z,993.79
2022-11-05T05:45:48.396Z,993.73
2022-11-05T05:46:48.385Z,993.72
2022-11-05T05:47:48.376Z,993.73
2022-11-05T05:48:48.372Z,993.76
2022-11-05T05:49:48.402Z,993.82
2022-11-05T05:50:48.361Z,993.85
2022-11-05T05:51:48.357Z,993.86
2022-11-05T05:52:48.360Z,993.90
2022-11-05T05:53:48.339Z,993.92
2022-11-05T05:54:48.369Z,993.95
2022-11-05T05:55:48.331Z,993.93
2022-11-05T05:56:48.312Z,993.95
2022-11-05T05:57:48.413Z,994.03
2022-11-05T05:58:48.299Z,993.98
2022-11-05T05:59:48.302Z,993.95
2022-11-05T06:00:48.302Z,994.02
2022-11-05T06:01:48.427Z,994.03
2022-11-05T06:02:48.409Z,994.03
2022-11-05T06:03:48.328Z,994.05
2022-11-05T06:04:48.277Z,994.08
2022-11-05T06:05:48.369Z,994.13
2022-11-05T06:06:48.292Z,994.18
2022-11-05T06:07:48.278Z,994.19
2022-11-05T06:08:48.230Z,994.22
2022-11-05T06:09:48.232Z,994.19
2022-11-05T06:10:48.859Z,994.19
2022-11-05T06:11:48.219Z,994.28
2022-11-05T06:12:48.263Z,994.28
2022-11-05T06:13:48.219Z,994.36
2022-11-05T06:14:48.301Z,994.30
2022-11-05T06:15:48.216Z,994.29
2022-11-05T06:16:48.176Z,994.26
2022-11-05T06:17:51.705Z,994.33
2022-11-05T06:18:48.176Z,994.31
2022-11-05T06:19:48.162Z,994.28
2022-11-05T06:20:48.156Z,994.34
2022-11-05T06:21:48.292Z,994.30
2022-11-05T06:22:48.167Z,994.32
2022-11-05T06:23:48.165Z,994.30
2022-11-05T06:24:48.134Z,994.28
2022-11-05T06:25:48.131Z,994.32
2022-11-05T06:26:48.120Z,994.31
2022-11-05T06:27:48.185Z,994.30
2022-11-05T06:28:48.124Z,994.28
2022-11-05T06:29:48.094Z,994.32
2022-11-05T06:30:48.099Z,994.35
2022-11-05T06:31:48.125Z,994.40
2022-11-05T06:32:48.082Z,994.42
2022-11-05T06:33:48.077Z,994.46
2022-11-05T06:34:48.065Z,994.40
2022-11-05T06:35:48.056Z,994.50
2022-11-05T06:36:48.043Z,994.53
2022-11-05T06:37:48.185Z,994.53
2022-11-05T06:38:48.035Z,994.52
2022-11-05T06:39:48.051Z,994.49
2022-11-05T06:40:48.038Z,994.52
2022-11-05T06:42:16.511Z,994.51
2022-11-05T06:42:49.016Z,994.56
2022-11-05T06:43:48.011Z,994.52
2022-11-05T06:44:48.008Z,994.55
2022-11-05T06:45:47.996Z,994.55
2022-11-05T06:46:48.761Z,994.56
2022-11-05T06:47:47.969Z,994.57
2022-11-05T06:48:47.990Z,994.53
2022-11-05T06:49:48.133Z,994.63
2022-11-05T06:50:48.356Z,994.64
2022-11-05T06:51:48.895Z,994.67
2022-11-05T06:52:47.944Z,994.62
2022-11-05T06:53:47.955Z,994.66
2022-11-05T06:54:47.934Z,994.63
2022-11-05T06:55:47.937Z,994.65
2022-11-05T06:56:47.913Z,994.57
2022-11-05T06:57:47.917Z,994.64
2022-11-05T06:58:47.898Z,994.62
2022-11-05T06:59:47.910Z,994.63
2022-11-05T07:00:48.733Z,994.61
2022-11-05T07:01:48.528Z,994.67
2022-11-05T07:02:47.905Z,994.67
2022-11-05T07:03:47.884Z,994.71
2022-11-05T07:04:47.865Z,994.67
2022-11-05T07:05:47.877Z,994.75
2022-11-05T07:06:47.871Z,994.82
2022-11-05T07:07:47.876Z,994.78
2022-11-05T07:08:47.835Z,994.79
2022-11-05T07:09:47.862Z,994.83
2022-11-05T07:10:47.825Z,994.83
2022-11-05T07:11:47.816Z,994.75
2022-11-05T07:12:47.817Z,994.77
2022-11-05T07:13:47.824Z,994.81
2022-11-05T07:14:47.804Z,994.89
2022-11-05T07:15:47.799Z,994.80
2022-11-05T07:16:47.786Z,994.90
2022-11-05T07:17:47.834Z,994.93
2022-11-05T07:18:47.799Z,994.95
2022-11-05T07:19:47.768Z,994.93
2022-11-05T07:20:47.770Z,994.98
2022-11-05T07:21:47.757Z,994.99
2022-11-05T07:22:47.744Z,995.04
2022-11-05T07:23:47.774Z,995.06
2022-11-05T07:24:47.739Z,995.05
2022-11-05T07:25:47.752Z,995.06
2022-11-05T07:26:47.724Z,995.03
2022-11-05T07:27:47.723Z,995.08
2022-11-05T07:28:48.134Z,995.10
2022-11-05T07:29:47.705Z,995.08
2022-11-05T07:30:48.220Z,995.11
2022-11-05T07:31:47.700Z,995.15
2022-11-05T07:32:47.687Z,995.18
2022-11-05T07:33:47.685Z,995.21
2022-11-05T07:34:47.673Z,995.22
2022-11-05T07:35:47.666Z,995.26
2022-11-05T07:36:47.671Z,995.21
2022-11-05T07:37:47.685Z,995.25
2022-11-05T07:38:47.650Z,995.23
2022-11-05T07:39:47.643Z,995.23
2022-11-05T07:40:47.648Z,995.24
2022-11-05T07:41:47.651Z,995.28
2022-11-05T07:42:48.196Z,995.28
2022-11-05T07:43:47.605Z,995.26
2022-11-05T07:44:47.615Z,995.28
2022-11-05T07:45:47.587Z,995.32
2022-11-05T07:46:47.583Z,995.27
2022-11-05T07:47:47.649Z,995.30
2022-11-05T07:48:47.562Z,995.24
2022-11-05T07:49:47.566Z,995.25
2022-11-05T07:50:47.550Z,995.26
2022-11-05T07:51:47.544Z,995.27
2022-11-05T07:52:47.547Z,995.34
2022-11-05T07:53:47.545Z,995.32
2022-11-05T07:54:47.531Z,995.35
2022-11-05T07:55:47.526Z,995.33
2022-11-05T07:56:47.507Z,995.34
2022-11-05T07:57:47.645Z,995.39
2022-11-05T07:58:47.495Z,995.42
2022-11-05T07:59:47.490Z,995.37
2022-11-05T08:00:47.629Z,995.43
2022-11-05T08:01:47.686Z,995.35
2022-11-05T08:02:47.741Z,995.36
2022-11-05T08:03:47.657Z,995.39
2022-11-05T08:04:47.451Z,995.41
2022-11-05T08:05:47.457Z,995.43
2022-11-05T08:06:47.452Z,995.37
2022-11-05T08:07:47.433Z,995.46
2022-11-05T08:08:47.432Z,995.52
2022-11-05T08:09:47.426Z,995.49
2022-11-05T08:10:47.410Z,995.54
2022-11-05T08:11:47.405Z,995.47
2022-11-05T08:12:48.086Z,995.53
2022-11-05T08:13:47.429Z,995.52
2022-11-05T08:14:47.397Z,995.51
2022-11-05T08:15:47.383Z,995.53
2022-11-05T08:16:47.365Z,995.52
2022-11-05T08:17:47.755Z,995.53
2022-11-05T08:18:47.350Z,995.57
2022-11-05T08:19:47.347Z,995.52
2022-11-05T08:20:47.369Z,995.61
2022-11-05T08:21:47.330Z,995.58
2022-11-05T08:22:47.326Z,995.58
2022-11-05T08:23:47.334Z,995.61
2022-11-05T08:24:47.304Z,995.59
2022-11-05T08:25:47.324Z,995.58
2022-11-05T08:26:47.310Z,995.66
2022-11-05T08:27:47.294Z,995.61
2022-11-05T08:28:47.309Z,995.64
2022-11-05T08:29:47.304Z,995.64
2022-11-05T08:30:47.266Z,995.71
2022-11-05T08:31:47.260Z,995.67
2022-11-05T08:32:47.253Z,995.70
2022-11-05T08:33:47.254Z,995.70
2022-11-05T08:34:47.254Z,995.74
2022-11-05T08:35:47.237Z,995.74
2022-11-05T08:36:48.935Z,995.74
2022-11-05T08:37:47.222Z,995.75
2022-11-05T08:38:47.209Z,995.74
2022-11-05T08:39:47.201Z,995.74
2022-11-05T08:40:47.202Z,995.79
2022-11-05T08:41:47.213Z,995.80
2022-11-05T08:42:47.174Z,995.76
2022-11-05T08:43:47.240Z,995.76
2022-11-05T08:44:47.191Z,995.79
2022-11-05T08:45:47.193Z,995.74
2022-11-05T08:46:47.320Z,995.80
2022-11-05T08:47:47.246Z,995.75
2022-11-05T08:48:47.136Z,995.79
2022-11-05T08:49:47.137Z,995.81
2022-11-05T08:50:47.130Z,995.90
2022-11-05T08:51:47.114Z,995.78
2022-11-05T08:52:48.018Z,995.87
2022-11-05T08:53:47.118Z,995.80
2022-11-05T08:54:47.101Z,995.84
2022-11-05T08:55:47.143Z,995.84
2022-11-05T08:56:48.079Z,995.84
2022-11-05T08:57:47.083Z,995.82
2022-11-05T08:58:47.069Z,995.85
2022-11-05T08:59:47.060Z,995.82
2022-11-05T09:00:47.107Z,995.82
2022-11-05T09:01:48.330Z,995.86
2022-11-05T09:02:47.042Z,995.85
2022-11-05T09:03:47.034Z,995.78
2022-11-05T09:04:47.732Z,995.86
2022-11-05T09:05:47.055Z,995.85
2022-11-05T09:06:47.023Z,995.80
2022-11-05T09:07:47.020Z,995.83
2022-11-05T09:08:47.044Z,995.76
2022-11-05T09:09:47.012Z,995.78
2022-11-05T09:10:47.044Z,995.80
2022-11-05T09:12:10.650Z,995.80
2022-11-05T09:12:47.963Z,995.81
2022-11-05T09:13:46.998Z,995.83
2022-11-05T09:14:46.964Z,995.82
2022-11-05T09:15:47.044Z,995.85
2022-11-05T09:16:46.999Z,995.79
2022-11-05T09:17:47.071Z,995.84
2022-11-05T09:18:46.924Z,995.84
2022-11-05T09:19:46.979Z,995.87
2022-11-05T09:20:46.920Z,995.98
2022-11-05T09:21:46.916Z,995.92
2022-11-05T09:22:47.151Z,995.96
2022-11-05T09:23:46.919Z,995.91
2022-11-05T09:24:46.903Z,995.90
2022-11-05T09:25:46.905Z,995.87
2022-11-05T09:26:46.865Z,995.82
2022-11-05T09:27:46.860Z,995.91
2022-11-05T09:28:46.870Z,995.92
2022-11-05T09:29:46.850Z,995.91
2022-11-05T09:30:46.889Z,995.90
2022-11-05T09:31:46.844Z,995.94
2022-11-05T09:32:46.858Z,995.88
2022-11-05T09:33:47.034Z,995.95
2022-11-05T09:34:46.838Z,995.93
2022-11-05T09:35:46.811Z,995.88
2022-11-05T09:36:46.869Z,995.90
2022-11-05T09:37:46.800Z,995.94
2022-11-05T09:38:47.532Z,995.92
2022-11-05T09:39:47.305Z,996.02
2022-11-05T09:40:46.785Z,995.92
2022-11-05T09:41:46.785Z,995.96
2022-11-05T09:42:46.775Z,995.98
2022-11-05T09:43:46.753Z,995.96
2022-11-05T09:44:49.539Z,995.96
2022-11-05T09:45:46.782Z,995.94
2022-11-05T09:46:46.734Z,995.99
2022-11-05T09:47:46.740Z,996.01
2022-11-05T09:48:46.727Z,996.04
2022-11-05T09:49:46.737Z,996.10
2022-11-05T09:50:46.712Z,996.09
2022-11-05T09:51:46.708Z,996.10
2022-11-05T09:52:46.695Z,996.06
2022-11-05T09:53:46.691Z,996.07
2022-11-05T09:54:46.684Z,996.12
2022-11-05T09:55:47.109Z,996.13
2022-11-05T09:56:46.667Z,996.13
2022-11-05T09:57:46.652Z,996.16
2022-11-05T09:58:46.654Z,996.04
2022-11-05T09:59:46.647Z,996.03
2022-11-05T10:00:46.669Z,996.02
2022-11-05T10:01:46.752Z,996.03
2022-11-05T10:02:46.627Z,996.01
2022-11-05T10:03:46.605Z,996.00
2022-11-05T10:04:46.605Z,996.02
2022-11-05T10:05:47.607Z,996.06
2022-11-05T10:06:46.586Z,996.09
2022-11-05T10:07:46.590Z,996.13
2022-11-05T10:08:46.638Z,996.13
2022-11-05T10:09:46.568Z,996.06
2022-11-05T10:10:46.563Z,996.07
2022-11-05T10:11:47.088Z,996.05
2022-11-05T10:12:46.576Z,996.06
2022-11-05T10:13:46.539Z,996.00
2022-11-05T10:14:46.543Z,996.05
2022-11-05T10:15:46.531Z,996.03
2022-11-05T10:16:46.519Z,996.01
2022-11-05T10:17:46.506Z,996.07
2022-11-05T10:18:46.496Z,996.18
2022-11-05T10:19:46.493Z,996.08
2022-11-05T10:20:46.530Z,996.09
2022-11-05T10:22:49.615Z,996.12
2022-11-05T10:23:46.496Z,996.13
2022-11-05T10:24:46.504Z,996.09
2022-11-05T10:25:46.454Z,996.14
2022-11-05T10:26:47.422Z,996.15
2022-11-05T10:27:46.453Z,996.12
2022-11-05T10:28:46.419Z,996.07
2022-11-05T10:29:46.441Z,996.10
2022-11-05T10:30:46.413Z,996.13
2022-11-05T10:31:46.397Z,996.15
2022-11-05T10:32:46.404Z,996.21
2022-11-05T10:33:47.352Z,996.15
2022-11-05T10:34:46.439Z,996.09
2022-11-05T10:35:46.384Z,996.18
2022-11-05T10:36:46.381Z,996.13
2022-11-05T10:37:46.381Z,996.15
2022-11-05T10:38:46.353Z,996.16
2022-11-05T10:39:46.354Z,996.17
2022-11-05T10:40:46.339Z,996.18
2022-11-05T10:41:46.333Z,996.11
2022-11-05T10:42:46.333Z,996.11
2022-11-05T10:43:46.340Z,996.13
2022-11-05T10:44:46.340Z,996.09
2022-11-05T10:45:46.317Z,996.19
2022-11-05T10:46:46.346Z,996.14
2022-11-05T10:47:46.294Z,996.08
2022-11-05T10:48:46.293Z,996.07
2022-11-05T10:49:46.408Z,996.19
2022-11-05T10:50:46.270Z,996.16
2022-11-05T10:51:46.284Z,996.05
2022-11-05T10:52:46.263Z,996.06
2022-11-05T10:53:46.312Z,996.11
2022-11-05T10:54:46.266Z,996.15
2022-11-05T10:55:46.237Z,996.12
2022-11-05T10:56:46.217Z,996.14
2022-11-05T10:57:46.227Z,996.18
2022-11-05T10:58:46.228Z,996.19
2022-11-05T10:59:46.204Z,996.15
2022-11-05T11:00:46.287Z,996.13
2022-11-05T11:01:46.279Z,996.19
2022-11-05T11:02:46.172Z,996.15
2022-11-05T11:03:46.167Z,996.12
2022-11-05T11:04:46.212Z,996.27
2022-11-05T11:05:46.161Z,996.23
2022-11-05T11:06:46.153Z,996.19
2022-11-05T11:07:46.145Z,996.12
2022-11-05T11:08:46.130Z,996.16
2022-11-05T11:09:46.613Z,996.25
2022-11-05T11:10:46.115Z,996.20
2022-11-05T11:11:46.109Z,996.23
2022-11-05T11:12:46.106Z,996.21
2022-11-05T11:13:46.156Z,996.30
2022-11-05T11:14:46.108Z,996.22
2022-11-05T11:15:46.085Z,996.19
2022-11-05T11:16:46.082Z,996.18
2022-11-05T11:17:46.203Z,996.14
2022-11-05T11:18:46.082Z,996.18
2022-11-05T11:19:46.075Z,996.20
2022-11-05T11:20:46.044Z,996.14
2022-11-05T11:21:46.054Z,996.21
2022-11-05T11:22:46.066Z,996.24
2022-11-05T11:23:46.099Z,996.26
2022-11-05T11:24:46.035Z,996.26
2022-11-05T11:25:46.043Z,996.30
2022-11-05T11:26:46.014Z,996.29
2022-11-05T11:27:46.005Z,996.26
2022-11-05T11:28:46.805Z,996.23
2022-11-05T11:29:49.382Z,996.25
2022-11-05T11:30:45.979Z,996.24
2022-11-05T11:31:45.978Z,996.29
2022-11-05T11:32:45.970Z,996.27
2022-11-05T11:33:46.000Z,996.23
2022-11-05T11:34:45.948Z,996.25
2022-11-05T11:35:45.953Z,996.28
2022-11-05T11:36:45.925Z,996.28
2022-11-05T11:37:45.927Z,996.25
2022-11-05T11:38:45.964Z,996.25
2022-11-05T11:39:45.911Z,996.24
2022-11-05T11:40:45.917Z,996.23
2022-11-05T11:41:45.927Z,996.21
2022-11-05T11:42:45.904Z,996.28
2022-11-05T11:43:45.887Z,996.19
2022-11-05T11:44:45.912Z,996.17
2022-11-05T11:45:45.909Z,996.19
2022-11-05T11:46:45.892Z,996.21
2022-11-05T11:47:45.853Z,996.21
2022-11-05T11:48:45.835Z,996.17
2022-11-05T11:49:45.864Z,996.08
2022-11-05T11:50:45.827Z,996.08
2022-11-05T11:51:49.954Z,996.08
2022-11-05T11:52:45.850Z,996.11
2022-11-05T11:53:45.810Z,996.08
2022-11-05T11:54:45.799Z,996.13
2022-11-05T11:55:46.270Z,996.13
2022-11-05T11:56:46.029Z,996.03
2022-11-05T11:57:45.809Z,996.04
2022-11-05T11:58:45.772Z,996.00
2022-11-05T12:00:07.723Z,996.00
2022-11-05T12:00:46.764Z,995.95
2022-11-05T12:01:45.808Z,995.99
2022-11-05T12:02:46.319Z,995.90
2022-11-05T12:03:45.743Z,995.91
2022-11-05T12:04:45.749Z,995.91
2022-11-05T12:05:45.723Z,995.90
2022-11-05T12:06:45.738Z,995.91
2022-11-05T12:07:47.076Z,995.85
2022-11-05T12:08:52.246Z,995.90
2022-11-05T12:09:46.689Z,995.87
2022-11-05T12:10:45.704Z,995.87
2022-11-05T12:11:45.679Z,995.77
2022-11-05T12:12:45.855Z,995.76
2022-11-05T12:13:45.688Z,995.80
2022-11-05T12:14:46.758Z,995.83
2022-11-05T12:15:45.658Z,995.83
2022-11-05T12:16:45.636Z,995.76
2022-11-05T12:17:45.628Z,995.85
2022-11-05T12:18:45.629Z,995.76
2022-11-05T12:19:46.160Z,995.79
2022-11-05T12:20:48.264Z,995.79
2022-11-05T12:21:53.015Z,995.74
2022-11-05T12:22:46.596Z,995.81
2022-11-05T12:23:45.621Z,995.82
2022-11-05T12:24:45.585Z,995.76
2022-11-05T12:25:45.577Z,995.76
2022-11-05T12:26:45.571Z,995.80
2022-11-05T12:27:45.566Z,995.79
2022-11-05T12:29:12.166Z,995.78
2022-11-05T12:29:46.567Z,995.86